createdAt,value
2022-08-07T00:00:18.574Z,71.18
2022-08-07T00:02:35.523Z,71.58
2022-08-07T00:02:45.807Z,71.36
2022-08-07T00:03:49.013Z,70.92
2022-08-07T00:04:51.878Z,70.96
2022-08-07T00:05:55.246Z,70.45
2022-08-07T00:07:01.443Z,70.23
2022-08-07T00:08:12.667Z,70.75
2022-08-07T00:09:22.732Z,70.39
2022-08-07T00:10:29.719Z,69.97
2022-08-07T00:11:33.591Z,70.05
2022-08-07T00:12:57.813Z,70.22
2022-08-07T00:13:59.460Z,70.41
2022-08-07T00:15:02.436Z,70.42
2022-08-07T00:16:06.949Z,70.60
2022-08-07T00:17:10.656Z,70.30
2022-08-07T00:18:24.493Z,70.99
2022-08-07T00:20:00.295Z,70.95
2022-08-07T00:20:57.524Z,70.94
2022-08-07T00:22:04.526Z,71.28
2022-08-07T00:23:08.156Z,70.82
2022-08-07T00:24:12.078Z,70.75
2022-08-07T00:25:17.346Z,70.96
2022-08-07T00:26:49.045Z,70.78
2022-08-07T00:27:52.341Z,70.88
2022-08-07T00:29:00.336Z,70.81
2022-08-07T00:30:06.240Z,71.09
2022-08-07T00:31:37.364Z,70.70
2022-08-07T00:32:41.524Z,70.33
2022-08-07T00:33:47.447Z,70.59
2022-08-07T00:34:50.906Z,70.78
2022-08-07T00:35:54.198Z,70.39
2022-08-07T00:36:57.438Z,70.38
2022-08-07T00:38:05.140Z,69.95
2022-08-07T00:39:08.629Z,69.94
2022-08-07T00:40:37.004Z,69.98
2022-08-07T00:42:02.096Z,69.80
2022-08-07T00:43:58.939Z,69.34
2022-08-07T00:44:35.112Z,68.69
2022-08-07T00:45:42.389Z,68.66
2022-08-07T00:46:50.369Z,68.37
2022-08-07T00:48:07.993Z,68.19
2022-08-07T00:49:24.814Z,68.28
2022-08-07T00:50:46.608Z,68.20
2022-08-07T00:51:58.465Z,68.52
2022-08-07T00:53:01.795Z,68.15
2022-08-07T00:54:04.795Z,68.12
2022-08-07T00:55:10.677Z,68.06
2022-08-07T00:56:16.097Z,67.77
2022-08-07T00:57:18.901Z,67.55
2022-08-07T00:58:21.869Z,67.22
2022-08-07T00:59:35.282Z,67.26
2022-08-07T01:00:38.964Z,67.20
2022-08-07T01:01:57.986Z,67.32
2022-08-07T01:03:01.077Z,66.94
2022-08-07T01:04:08.303Z,66.75
2022-08-07T01:05:18.844Z,66.95
2022-08-07T01:06:22.561Z,66.66
2022-08-07T01:07:25.522Z,66.59
2022-08-07T01:08:31.837Z,66.57
2022-08-07T01:10:06.253Z,66.79
2022-08-07T01:12:24.053Z,66.78
2022-08-07T01:12:28.639Z,66.68
2022-08-07T01:13:35.199Z,66.87
2022-08-07T01:14:38.434Z,66.98
2022-08-07T01:16:04.885Z,67.32
2022-08-07T01:17:10.288Z,67.46
2022-08-07T01:18:16.771Z,67.37
2022-08-07T01:19:22.084Z,67.49
2022-08-07T01:20:33.234Z,67.35
2022-08-07T01:21:36.909Z,67.43
2022-08-07T01:22:46.823Z,67.82
2022-08-07T01:24:04.869Z,67.38
2022-08-07T01:25:53.589Z,67.10
2022-08-07T01:26:35.367Z,67.14
2022-08-07T01:27:51.205Z,67.70
2022-08-07T01:28:55.584Z,67.85
2022-08-07T01:30:02.140Z,66.92
2022-08-07T01:31:05.485Z,66.88
2022-08-07T01:32:12.513Z,66.69
2022-08-07T01:33:17.386Z,66.49
2022-08-07T01:34:30.063Z,66.15
2022-08-07T01:35:36.970Z,65.95
2022-08-07T01:36:57.920Z,65.83
2022-08-07T01:38:01.757Z,65.56
2022-08-07T01:39:09.788Z,65.45
2022-08-07T01:40:16.771Z,65.60
2022-08-07T01:41:26.256Z,65.52
2022-08-07T01:42:40.058Z,65.39
2022-08-07T01:43:53.301Z,65.11
2022-08-07T01:44:56.576Z,65.77
2022-08-07T01:46:02.088Z,65.28
2022-08-07T01:48:16.925Z,65.57
2022-08-07T01:48:30.161Z,65.66
2022-08-07T01:49:33.539Z,66.08
2022-08-07T01:50:43.174Z,66.34
2022-08-07T01:52:03.893Z,66.20
2022-08-07T01:53:10.081Z,66.39
2022-08-07T01:54:32.915Z,67.17
2022-08-07T01:55:47.756Z,67.32
2022-08-07T01:57:02.272Z,67.15
2022-08-07T01:58:28.849Z,67.04
2022-08-07T01:59:52.444Z,66.82
2022-08-07T02:01:25.380Z,67.32
2022-08-07T02:03:12.399Z,67.24
2022-08-07T02:04:12.467Z,66.80
2022-08-07T02:05:48.121Z,66.76
2022-08-07T02:06:47.714Z,67.33
2022-08-07T02:07:52.672Z,66.93
2022-08-07T02:09:00.269Z,66.38
2022-08-07T02:10:05.640Z,65.99
2022-08-07T02:11:10.950Z,65.49
2022-08-07T02:12:37.378Z,65.64
2022-08-07T02:14:00.671Z,65.17
2022-08-07T02:15:07.415Z,65.17
2022-08-07T02:16:12.071Z,65.07
2022-08-07T02:17:16.575Z,64.57
2022-08-07T02:18:35.364Z,64.71
2022-08-07T02:20:06.918Z,64.68
2022-08-07T02:21:08.784Z,65.16
2022-08-07T02:22:20.951Z,65.46
2022-08-07T02:23:35.791Z,64.80
2022-08-07T02:24:44.480Z,64.86
2022-08-07T02:26:32.059Z,65.20
2022-08-07T02:27:14.582Z,65.37
2022-08-07T02:28:25.331Z,64.84
2022-08-07T02:29:31.273Z,65.05
2022-08-07T02:30:35.747Z,65.52
2022-08-07T02:31:39.887Z,65.80
2022-08-07T02:33:03.952Z,65.91
2022-08-07T02:34:11.692Z,66.51
2022-08-07T02:35:20.936Z,66.55
2022-08-07T02:36:45.146Z,66.03
2022-08-07T02:37:49.957Z,66.34
2022-08-07T02:38:57.132Z,66.38
2022-08-07T02:40:31.174Z,65.98
2022-08-07T02:41:37.221Z,65.84
2022-08-07T02:43:50.492Z,66.32
2022-08-07T02:44:58.364Z,65.74
2022-08-07T02:46:04.756Z,66.24
2022-08-07T02:47:08.548Z,66.30
2022-08-07T02:48:23.377Z,66.88
2022-08-07T02:49:29.210Z,66.77
2022-08-07T02:50:53.236Z,66.37
2022-08-07T02:51:59.301Z,67.00
2022-08-07T02:53:07.358Z,67.12
2022-08-07T02:55:28.524Z,67.01
2022-08-07T02:56:51.393Z,67.59
2022-08-07T02:57:59.757Z,67.03
2022-08-07T02:59:06.348Z,67.25
2022-08-07T03:00:11.173Z,67.70
2022-08-07T03:01:18.787Z,67.86
2022-08-07T03:02:22.985Z,68.09
2022-08-07T03:03:49.297Z,67.89
2022-08-07T03:04:55.374Z,67.37
2022-08-07T03:05:59.578Z,67.43
2022-08-07T03:07:03.445Z,67.29
2022-08-07T03:08:14.366Z,67.75
2022-08-07T03:09:42.307Z,68.02
2022-08-07T03:10:50.154Z,68.28
2022-08-07T03:11:57.897Z,68.17
2022-08-07T03:13:07.194Z,68.20
2022-08-07T03:14:12.377Z,67.84
2022-08-07T03:15:15.428Z,68.23
2022-08-07T03:16:38.943Z,68.49
2022-08-07T03:17:52.820Z,68.80
2022-08-07T03:18:58.308Z,68.44
2022-08-07T03:20:01.893Z,67.74
2022-08-07T03:21:08.851Z,68.22
2022-08-07T03:22:18.954Z,68.30
2022-08-07T03:23:22.184Z,67.96
2022-08-07T03:24:37.263Z,67.93
2022-08-07T03:25:42.802Z,68.01
2022-08-07T03:26:57.906Z,67.89
2022-08-07T03:28:09.784Z,68.09
2022-08-07T03:29:29.730Z,68.52
2022-08-07T03:30:33.751Z,68.81
2022-08-07T03:31:42.355Z,68.33
2022-08-07T03:32:58.605Z,68.06
2022-08-07T03:34:03.344Z,68.33
2022-08-07T03:35:18.136Z,68.48
2022-08-07T03:36:25.806Z,69.19
2022-08-07T03:37:45.898Z,68.53
2022-08-07T03:38:54.080Z,68.47
2022-08-07T03:40:13.196Z,68.53
2022-08-07T03:41:18.780Z,67.79
2022-08-07T03:42:42.460Z,68.04
2022-08-07T03:43:56.997Z,68.16
2022-08-07T03:45:01.364Z,68.39
2022-08-07T03:46:10.320Z,68.10
2022-08-07T03:47:14.684Z,68.18
2022-08-07T03:48:17.695Z,68.37
2022-08-07T03:49:21.048Z,67.90
2022-08-07T03:50:25.575Z,67.80
2022-08-07T03:51:47.437Z,68.03
2022-08-07T03:53:01.290Z,68.40
2022-08-07T03:54:33.262Z,68.46
2022-08-07T03:55:53.130Z,68.78
2022-08-07T03:57:03.523Z,68.87
2022-08-07T03:58:34.395Z,68.16
2022-08-07T03:59:32.595Z,67.82
2022-08-07T04:00:38.690Z,67.71
2022-08-07T04:01:50.135Z,67.48
2022-08-07T04:02:56.714Z,67.64
2022-08-07T04:04:04.954Z,67.95
2022-08-07T04:05:09.114Z,67.99
2022-08-07T04:06:37.722Z,67.59
2022-08-07T04:07:42.650Z,67.61
2022-08-07T04:08:48.322Z,67.37
2022-08-07T04:09:52.124Z,67.87
2022-08-07T04:12:21.486Z,67.65
2022-08-07T04:12:27.030Z,67.00
2022-08-07T04:14:10.900Z,67.28
2022-08-07T04:14:56.971Z,67.53
2022-08-07T04:15:59.643Z,68.18
2022-08-07T04:17:03.252Z,67.73
2022-08-07T04:18:57.571Z,67.54
2022-08-07T04:19:51.140Z,67.58
2022-08-07T04:20:55.216Z,67.96
2022-08-07T04:22:04.851Z,67.93
2022-08-07T04:23:19.287Z,68.12
2022-08-07T04:24:30.736Z,68.69
2022-08-07T04:25:42.133Z,68.96
2022-08-07T04:26:45.313Z,71.31
2022-08-07T04:27:59.192Z,72.38
2022-08-07T04:29:03.916Z,75.01
2022-08-07T04:30:11.699Z,74.62
2022-08-07T04:31:20.235Z,78.05
2022-08-07T04:32:44.852Z,78.43
2022-08-07T04:33:55.043Z,78.72
2022-08-07T04:35:00.204Z,79.91
2022-08-07T04:36:06.639Z,81.49
2022-08-07T04:38:17.929Z,82.35
2022-08-07T04:39:25.764Z,82.14
2022-08-07T04:40:30.178Z,83.33
2022-08-07T04:41:36.803Z,83.33
2022-08-07T04:42:39.908Z,82.45
2022-08-07T04:44:13.036Z,81.54
2022-08-07T04:45:11.904Z,81.98
2022-08-07T04:47:08.542Z,83.08
2022-08-07T04:48:21.511Z,84.08
2022-08-07T04:49:26.188Z,83.31
2022-08-07T04:50:39.607Z,84.11
2022-08-07T04:51:54.655Z,83.56
2022-08-07T04:53:07.515Z,83.75
2022-08-07T04:54:31.880Z,81.85
2022-08-07T04:58:16.378Z,81.38
2022-08-07T04:58:16.616Z,81.65
2022-08-07T05:00:07.996Z,82.90
2022-08-07T05:00:54.084Z,82.67
2022-08-07T05:02:46.340Z,82.18
2022-08-07T05:04:17.843Z,78.70
2022-08-07T05:05:52.969Z,77.38
2022-08-07T05:06:51.250Z,77.37
2022-08-07T05:08:01.459Z,75.70
2022-08-07T05:09:42.994Z,75.05
2022-08-07T05:10:58.612Z,75.03
2022-08-07T05:12:10.527Z,73.29
2022-08-07T05:14:53.475Z,72.09
2022-08-07T05:15:03.188Z,72.20
2022-08-07T05:16:10.766Z,74.12
2022-08-07T05:17:17.470Z,73.93
2022-08-07T05:19:02.330Z,73.50
2022-08-07T05:20:09.646Z,72.73
2022-08-07T05:21:14.918Z,73.15
2022-08-07T05:22:27.686Z,72.65
2022-08-07T05:23:36.672Z,73.16
2022-08-07T05:24:40.988Z,70.94
2022-08-07T05:26:10.529Z,69.99
2022-08-07T05:27:18.457Z,68.58
2022-08-07T05:28:40.557Z,68.99
2022-08-07T05:29:51.024Z,68.41
2022-08-07T05:30:55.904Z,69.03
2022-08-07T05:32:01.365Z,69.21
2022-08-07T05:33:07.863Z,68.11
2022-08-07T05:34:15.664Z,68.24
2022-08-07T05:35:23.789Z,67.71
2022-08-07T05:36:39.323Z,67.58
2022-08-07T05:37:42.931Z,67.14
2022-08-07T05:39:00.371Z,67.09
2022-08-07T05:40:17.556Z,67.34
2022-08-07T05:41:22.621Z,67.32
2022-08-07T05:42:33.835Z,68.16
2022-08-07T05:43:49.681Z,67.04
2022-08-07T05:45:14.445Z,67.69
2022-08-07T05:46:30.149Z,66.48
2022-08-07T05:47:38.449Z,64.83
2022-08-07T05:48:59.490Z,64.84
2022-08-07T05:50:03.346Z,64.89
2022-08-07T05:51:07.360Z,65.32
2022-08-07T05:52:12.046Z,65.70
2022-08-07T05:54:12.566Z,64.82
2022-08-07T05:54:53.224Z,64.32
2022-08-07T05:56:06.067Z,64.35
2022-08-07T05:57:10.087Z,65.03
2022-08-07T05:58:14.950Z,64.71
2022-08-07T05:59:21.305Z,63.32
2022-08-07T06:00:26.511Z,64.23
2022-08-07T06:01:35.777Z,64.50
2022-08-07T06:02:40.392Z,64.12
2022-08-07T06:03:56.714Z,64.64
2022-08-07T06:05:15.759Z,64.44
2022-08-07T06:06:19.718Z,64.33
2022-08-07T06:08:13.137Z,63.72
2022-08-07T06:08:47.988Z,63.90
2022-08-07T06:10:05.395Z,64.94
2022-08-07T06:11:09.425Z,63.88
2022-08-07T06:12:15.374Z,64.17
2022-08-07T06:13:18.523Z,63.41
2022-08-07T06:14:28.810Z,63.34
2022-08-07T06:15:42.014Z,63.02
2022-08-07T06:16:50.555Z,63.46
2022-08-07T06:17:59.968Z,63.08
2022-08-07T06:19:09.237Z,63.08
2022-08-07T06:20:25.555Z,64.14
2022-08-07T06:22:11.805Z,63.65
2022-08-07T06:23:25.105Z,63.11
2022-08-07T06:24:52.778Z,62.66
2022-08-07T06:25:57.053Z,62.26
2022-08-07T06:27:00.090Z,62.23
2022-08-07T06:28:09.929Z,61.79
2022-08-07T06:29:17.100Z,61.84
2022-08-07T06:30:32.248Z,62.21
2022-08-07T06:31:49.589Z,62.96
2022-08-07T06:32:53.317Z,61.61
2022-08-07T06:33:56.053Z,61.99
2022-08-07T06:35:10.422Z,62.27
2022-08-07T06:36:35.378Z,60.89
2022-08-07T06:37:43.421Z,60.93
2022-08-07T06:38:59.433Z,60.76
2022-08-07T06:40:16.977Z,61.17
2022-08-07T06:42:02.015Z,60.47
2022-08-07T06:43:00.245Z,60.51
2022-08-07T06:44:10.929Z,60.68
2022-08-07T06:45:21.060Z,60.82
2022-08-07T06:46:31.335Z,59.77
2022-08-07T06:47:38.655Z,59.50
2022-08-07T06:48:51.614Z,59.67
2022-08-07T06:49:58.220Z,59.57
2022-08-07T06:51:08.335Z,60.10
2022-08-07T06:52:14.684Z,60.32
2022-08-07T06:55:27.099Z,60.14
2022-08-07T06:55:31.199Z,59.90
2022-08-07T06:56:15.428Z,59.06
2022-08-07T06:57:20.988Z,58.89
2022-08-07T07:00:12.602Z,58.99
2022-08-07T07:00:17.625Z,60.01
2022-08-07T07:01:22.308Z,59.61
2022-08-07T07:02:54.444Z,58.45
2022-08-07T07:03:57.192Z,58.56
2022-08-07T07:05:09.401Z,58.14
2022-08-07T07:06:26.119Z,57.57
2022-08-07T07:07:59.520Z,57.83
2022-08-07T07:08:52.382Z,57.83
2022-08-07T07:09:54.944Z,57.47
2022-08-07T07:10:57.939Z,57.93
2022-08-07T07:12:16.669Z,57.95
2022-08-07T07:13:43.537Z,57.53
2022-08-07T07:15:23.870Z,58.18
2022-08-07T07:16:38.940Z,57.29
2022-08-07T07:18:05.662Z,57.00
2022-08-07T07:19:56.341Z,57.63
2022-08-07T07:20:46.016Z,56.95
2022-08-07T07:22:05.039Z,56.20
2022-08-07T07:24:11.126Z,56.81
2022-08-07T07:24:42.936Z,56.72
2022-08-07T07:26:35.031Z,56.10
2022-08-07T07:27:35.696Z,56.78
2022-08-07T07:29:38.674Z,56.89
2022-08-07T07:30:37.841Z,57.14
2022-08-07T07:31:46.595Z,56.71
2022-08-07T07:32:52.314Z,56.90
2022-08-07T07:34:02.322Z,57.03
2022-08-07T07:35:08.822Z,57.08
2022-08-07T07:36:12.851Z,56.82
2022-08-07T07:37:49.558Z,56.70
2022-08-07T07:38:47.658Z,56.47
2022-08-07T07:39:55.357Z,56.75
2022-08-07T07:41:02.862Z,56.27
2022-08-07T07:42:13.369Z,55.36
2022-08-07T07:43:27.538Z,55.94
2022-08-07T07:44:45.032Z,55.38
2022-08-07T07:46:37.328Z,54.40
2022-08-07T07:47:23.097Z,54.42
2022-08-07T07:48:36.021Z,54.82
2022-08-07T07:50:32.841Z,54.68
2022-08-07T07:51:08.039Z,53.56
2022-08-07T07:52:13.124Z,53.72
2022-08-07T07:53:23.061Z,53.38
2022-08-07T07:54:29.859Z,53.65
2022-08-07T07:55:37.212Z,53.77
2022-08-07T07:56:43.712Z,52.94
2022-08-07T07:57:53.991Z,53.21
2022-08-07T07:59:03.454Z,52.80
2022-08-07T08:00:09.583Z,54.50
2022-08-07T08:02:02.513Z,53.23
2022-08-07T08:03:04.916Z,53.45
2022-08-07T08:04:11.638Z,52.87
2022-08-07T08:05:18.221Z,51.55
2022-08-07T08:06:26.648Z,51.25
2022-08-07T08:07:35.788Z,52.58
2022-08-07T08:08:48.290Z,52.02
2022-08-07T08:10:04.624Z,51.89
2022-08-07T08:11:16.548Z,52.89
2022-08-07T08:12:52.340Z,51.87
2022-08-07T08:13:57.836Z,54.16
2022-08-07T08:15:07.021Z,51.56
2022-08-07T08:16:25.322Z,51.88
2022-08-07T08:17:57.607Z,52.81
2022-08-07T08:18:58.233Z,52.40
2022-08-07T08:20:18.223Z,51.07
2022-08-07T08:21:55.356Z,51.41
2022-08-07T08:23:28.013Z,51.04
2022-08-07T08:25:04.456Z,50.64
2022-08-07T08:26:38.855Z,50.66
2022-08-07T08:27:56.744Z,51.21
2022-08-07T08:29:06.404Z,51.61
2022-08-07T08:30:17.322Z,50.99
2022-08-07T08:31:58.381Z,51.82
2022-08-07T08:32:56.290Z,52.29
2022-08-07T08:34:01.702Z,51.84
2022-08-07T08:35:09.856Z,52.46
2022-08-07T08:36:13.645Z,51.04
2022-08-07T08:37:59.534Z,51.44
2022-08-07T08:38:50.179Z,51.61
2022-08-07T08:39:58.718Z,51.13
2022-08-07T08:41:12.912Z,50.64
2022-08-07T08:42:41.255Z,49.96
2022-08-07T08:43:59.953Z,50.21
2022-08-07T08:45:59.178Z,50.97
2022-08-07T08:47:17.356Z,49.96
2022-08-07T08:48:36.195Z,49.86
2022-08-07T08:50:04.596Z,49.35
2022-08-07T08:52:01.010Z,49.18
2022-08-07T08:53:03.056Z,49.78
2022-08-07T08:54:20.324Z,49.06
2022-08-07T08:55:54.503Z,49.15
2022-08-07T08:56:54.826Z,48.51
2022-08-07T08:58:13.070Z,48.19
2022-08-07T08:59:50.990Z,48.43
2022-08-07T09:01:15.089Z,48.22
2022-08-07T09:02:39.478Z,47.44
2022-08-07T09:03:56.732Z,46.96
2022-08-07T09:05:36.612Z,46.86
2022-08-07T09:06:55.959Z,46.56
2022-08-07T09:07:59.628Z,47.09
2022-08-07T09:09:29.925Z,46.46
2022-08-07T09:11:00.679Z,46.35
2022-08-07T09:12:32.286Z,47.25
2022-08-07T09:13:42.149Z,47.26
2022-08-07T09:16:23.468Z,46.45
2022-08-07T09:16:48.849Z,45.08
2022-08-07T09:18:16.844Z,45.79
2022-08-07T09:20:35.653Z,45.13
2022-08-07T09:22:10.072Z,45.34
2022-08-07T09:24:32.504Z,45.41
2022-08-07T09:25:27.425Z,45.26
2022-08-07T09:26:47.684Z,44.58
2022-08-07T09:30:01.206Z,44.55
2022-08-07T09:30:06.697Z,43.39
2022-08-07T09:31:40.499Z,43.10
2022-08-07T09:33:05.480Z,42.78
2022-08-07T09:34:27.282Z,42.26
2022-08-07T09:36:03.370Z,42.88
2022-08-07T09:37:14.983Z,41.78
2022-08-07T09:38:50.298Z,43.38
2022-08-07T09:40:09.189Z,42.82
2022-08-07T09:41:24.464Z,42.59
2022-08-07T09:42:33.634Z,41.89
2022-08-07T09:44:07.020Z,41.93
2022-08-07T09:47:25.583Z,41.73
2022-08-07T09:47:49.519Z,42.85
2022-08-07T09:50:02.931Z,43.16
2022-08-07T09:50:39.982Z,41.90
2022-08-07T09:52:10.051Z,42.04
2022-08-07T09:53:22.610Z,42.58
2022-08-07T09:54:47.685Z,41.37
2022-08-07T09:56:11.238Z,41.30
2022-08-07T09:57:47.000Z,42.38
2022-08-07T10:00:00.657Z,44.13
2022-08-07T10:01:50.601Z,42.80
2022-08-07T10:04:03.294Z,43.02
2022-08-07T10:04:58.315Z,43.82
2022-08-07T10:06:26.169Z,43.67
2022-08-07T10:07:53.398Z,44.30
2022-08-07T10:09:59.245Z,44.03
2022-08-07T10:12:03.155Z,43.19
2022-08-07T10:13:29.771Z,43.04
2022-08-07T10:15:01.414Z,43.75
2022-08-07T10:16:30.904Z,42.97
2022-08-07T10:18:02.873Z,42.36
2022-08-07T10:19:27.409Z,41.30
2022-08-07T10:20:38.699Z,41.29
2022-08-07T10:22:15.965Z,39.94
2022-08-07T10:24:05.047Z,41.55
2022-08-07T10:25:01.174Z,41.87
2022-08-07T10:26:31.007Z,41.81
2022-08-07T10:28:12.852Z,41.19
2022-08-07T10:29:34.873Z,40.15
2022-08-07T10:30:54.265Z,40.71
2022-08-07T10:32:37.018Z,39.92
2022-08-07T10:34:07.000Z,40.16
2022-08-07T10:35:16.589Z,39.88
2022-08-07T10:37:03.828Z,39.14
2022-08-07T10:38:36.214Z,39.48
2022-08-07T10:40:06.164Z,40.67
2022-08-07T10:41:47.473Z,40.28
2022-08-07T10:43:12.862Z,39.97
2022-08-07T10:44:45.146Z,41.30
2022-08-07T10:45:57.374Z,40.90
2022-08-07T10:47:26.823Z,41.73
2022-08-07T10:49:15.004Z,40.09
2022-08-07T10:50:34.476Z,40.44
2022-08-07T10:52:13.764Z,40.86
2022-08-07T10:53:44.048Z,38.74
2022-08-07T10:55:01.891Z,39.00
2022-08-07T10:56:48.244Z,38.03
2022-08-07T10:58:18.452Z,38.19
2022-08-07T10:59:53.333Z,37.49
2022-08-07T11:01:15.101Z,36.55
2022-08-07T11:02:34.246Z,36.36
2022-08-07T11:04:16.764Z,37.63
2022-08-07T11:05:49.179Z,37.77
2022-08-07T11:07:58.697Z,39.11
2022-08-07T11:08:58.018Z,38.26
2022-08-07T11:10:08.623Z,38.90
2022-08-07T11:11:42.752Z,39.23
2022-08-07T11:13:01.763Z,39.88
2022-08-07T11:14:45.309Z,39.75
2022-08-07T11:16:10.190Z,39.38
2022-08-07T11:17:46.305Z,39.20
2022-08-07T11:19:06.905Z,38.54
2022-08-07T11:20:24.592Z,38.79
2022-08-07T11:21:53.865Z,38.72
2022-08-07T11:23:36.443Z,38.07
2022-08-07T11:24:47.036Z,39.09
2022-08-07T11:26:22.049Z,38.45
2022-08-07T11:28:00.993Z,37.80
2022-08-07T11:29:43.048Z,37.69
2022-08-07T11:30:43.944Z,38.20
2022-08-07T11:32:11.091Z,38.16
2022-08-07T11:33:53.993Z,37.41
2022-08-07T11:34:51.299Z,37.41
2022-08-07T11:36:13.644Z,36.48
2022-08-07T11:37:16.292Z,35.58
2022-08-07T11:38:37.622Z,35.26
2022-08-07T11:40:11.473Z,36.33
2022-08-07T11:42:02.143Z,36.15
2022-08-07T11:43:01.803Z,37.03
2022-08-07T11:44:23.964Z,36.02
2022-08-07T11:46:11.759Z,35.98
2022-08-07T11:47:39.107Z,36.87
2022-08-07T11:50:18.533Z,36.62
2022-08-07T11:51:41.699Z,35.87
2022-08-07T11:53:15.660Z,35.28
2022-08-07T11:54:25.468Z,34.94
2022-08-07T11:56:25.585Z,35.00
2022-08-07T11:57:59.478Z,35.36
2022-08-07T12:00:10.172Z,35.88
2022-08-07T12:01:10.019Z,35.07
2022-08-07T12:02:52.181Z,35.48
2022-08-07T12:04:01.598Z,34.62
2022-08-07T12:05:15.306Z,34.51
2022-08-07T12:06:37.033Z,34.92
2022-08-07T12:08:03.838Z,34.87
2022-08-07T12:09:24.418Z,36.50
2022-08-07T12:10:41.608Z,36.45
2022-08-07T12:12:10.058Z,36.04
2022-08-07T12:13:47.805Z,35.65
2022-08-07T12:15:08.093Z,35.75
2022-08-07T12:16:34.145Z,36.99
2022-08-07T12:17:58.623Z,35.64
2022-08-07T12:20:03.254Z,35.58
2022-08-07T12:21:55.442Z,36.00
2022-08-07T12:24:04.951Z,35.32
2022-08-07T12:26:03.183Z,35.60
2022-08-07T12:26:59.079Z,35.70
2022-08-07T12:28:15.195Z,36.78
2022-08-07T12:29:37.954Z,35.95
2022-08-07T12:30:46.951Z,35.96
2022-08-07T12:32:18.643Z,36.68
2022-08-07T12:33:28.543Z,37.35
2022-08-07T12:34:55.779Z,37.34
2022-08-07T12:36:02.392Z,35.08
2022-08-07T12:37:08.272Z,35.07
2022-08-07T12:38:36.802Z,34.23
2022-08-07T12:39:51.361Z,35.23
2022-08-07T12:40:56.159Z,36.45
2022-08-07T12:42:02.467Z,36.79
2022-08-07T12:43:09.838Z,37.05
2022-08-07T12:44:17.167Z,37.24
2022-08-07T12:45:26.351Z,37.58
2022-08-07T12:46:35.890Z,37.38
2022-08-07T12:47:57.782Z,37.44
2022-08-07T12:49:25.804Z,37.56
2022-08-07T12:51:24.265Z,37.79
2022-08-07T12:54:02.652Z,38.13
2022-08-07T12:55:21.713Z,38.00
2022-08-07T12:56:51.374Z,38.46
2022-08-07T12:58:02.179Z,38.46
2022-08-07T12:59:08.650Z,38.89
2022-08-07T13:00:53.076Z,39.30
2022-08-07T13:02:09.935Z,39.25
2022-08-07T13:03:56.264Z,38.27
2022-08-07T13:06:01.848Z,38.20
2022-08-07T13:08:12.730Z,39.03
2022-08-07T13:08:56.708Z,39.19
2022-08-07T13:10:29.341Z,38.49
2022-08-07T13:12:03.355Z,39.00
2022-08-07T13:13:47.883Z,39.09
2022-08-07T13:15:23.740Z,38.08
2022-08-07T13:16:55.756Z,38.19
2022-08-07T13:18:35.969Z,37.12
2022-08-07T13:19:51.641Z,37.36
2022-08-07T13:21:51.039Z,36.67
2022-08-07T13:24:01.021Z,37.86
2022-08-07T13:25:24.136Z,37.96
2022-08-07T13:26:46.120Z,38.10
2022-08-07T13:28:10.707Z,37.89
2022-08-07T13:29:23.574Z,37.37
2022-08-07T13:30:43.480Z,38.28
2022-08-07T13:31:57.716Z,38.51
2022-08-07T13:34:14.503Z,37.34
2022-08-07T13:34:57.742Z,36.64
2022-08-07T13:36:09.870Z,37.15
2022-08-07T13:37:42.201Z,37.79
2022-08-07T13:38:56.719Z,35.75
2022-08-07T13:40:35.760Z,35.35
2022-08-07T13:41:54.882Z,36.00
2022-08-07T13:43:05.565Z,35.91
2022-08-07T13:44:26.017Z,35.59
2022-08-07T13:46:11.712Z,35.44
2022-08-07T13:46:59.641Z,34.52
2022-08-07T13:48:08.821Z,34.16
2022-08-07T13:50:34.310Z,33.81
2022-08-07T13:50:45.004Z,33.50
2022-08-07T13:52:31.572Z,33.61
2022-08-07T13:53:59.481Z,33.65
2022-08-07T13:55:07.574Z,33.52
2022-08-07T13:56:19.426Z,32.89
2022-08-07T13:57:59.054Z,33.41
2022-08-07T13:59:30.506Z,32.92
2022-08-07T14:00:54.285Z,34.06
2022-08-07T14:02:15.281Z,35.09
2022-08-07T14:03:30.108Z,36.60
2022-08-07T14:04:58.352Z,36.33
2022-08-07T14:06:02.063Z,36.36
2022-08-07T14:07:10.231Z,36.99
2022-08-07T14:08:15.604Z,37.09
2022-08-07T14:10:12.363Z,36.53
2022-08-07T14:11:01.993Z,37.08
2022-08-07T14:12:30.358Z,36.28
2022-08-07T14:13:35.521Z,36.36
2022-08-07T14:14:51.612Z,36.13
2022-08-07T14:16:02.176Z,35.12
2022-08-07T14:17:51.374Z,35.06
2022-08-07T14:18:39.100Z,35.76
2022-08-07T14:20:43.429Z,36.71
2022-08-07T14:22:01.287Z,36.46
2022-08-07T14:23:02.041Z,35.80
2022-08-07T14:24:14.414Z,36.14
2022-08-07T14:25:18.006Z,35.97
2022-08-07T14:26:30.470Z,36.52
2022-08-07T14:28:19.941Z,36.81
2022-08-07T14:29:10.391Z,37.28
2022-08-07T14:30:33.164Z,37.49
2022-08-07T14:31:42.741Z,37.77
2022-08-07T14:32:58.785Z,38.08
2022-08-07T14:34:03.170Z,37.47
2022-08-07T14:35:16.502Z,36.58
2022-08-07T14:36:41.044Z,36.91
2022-08-07T14:38:05.583Z,37.20
2022-08-07T14:39:12.515Z,37.47
2022-08-07T14:40:35.372Z,36.47
2022-08-07T14:42:20.915Z,38.21
2022-08-07T14:43:58.029Z,36.40
2022-08-07T14:44:30.910Z,37.09
2022-08-07T14:45:49.359Z,36.57
2022-08-07T14:47:14.431Z,36.32
2022-08-07T14:48:27.644Z,35.74
2022-08-07T14:49:57.168Z,35.80
2022-08-07T14:51:03.516Z,35.77
2022-08-07T14:52:10.301Z,36.61
2022-08-07T14:53:14.240Z,36.41
2022-08-07T14:54:30.982Z,36.51
2022-08-07T14:55:55.353Z,36.77
2022-08-07T14:57:03.244Z,37.07
2022-08-07T14:58:07.821Z,37.04
2022-08-07T15:00:56.263Z,36.19
2022-08-07T15:02:32.981Z,36.02
2022-08-07T15:03:51.331Z,36.84
2022-08-07T15:04:57.016Z,36.32
2022-08-07T15:06:04.684Z,35.88
2022-08-07T15:07:17.629Z,35.46
2022-08-07T15:08:32.726Z,35.33
2022-08-07T15:09:59.832Z,35.43
2022-08-07T15:11:08.822Z,36.08
2022-08-07T15:12:30.485Z,36.19
2022-08-07T15:13:50.543Z,35.02
2022-08-07T15:15:21.064Z,35.16
2022-08-07T15:16:41.901Z,35.42
2022-08-07T15:20:30.958Z,35.77
2022-08-07T15:21:08.009Z,35.63
2022-08-07T15:22:23.246Z,36.14
2022-08-07T15:25:15.571Z,35.73
2022-08-07T15:26:41.343Z,36.20
2022-08-07T15:28:32.168Z,35.56
2022-08-07T15:31:05.005Z,35.67
2022-08-07T15:32:05.007Z,35.34
2022-08-07T15:33:19.387Z,34.88
2022-08-07T15:34:26.095Z,35.52
2022-08-07T15:37:03.151Z,34.89
2022-08-07T15:38:29.799Z,35.03
2022-08-07T15:39:56.611Z,35.07
2022-08-07T15:42:44.206Z,35.54
2022-08-07T15:44:08.496Z,35.32
2022-08-07T15:45:19.391Z,35.67
2022-08-07T15:48:01.931Z,35.85
2022-08-07T15:49:12.446Z,36.43
2022-08-07T15:50:37.889Z,35.46
2022-08-07T15:53:07.677Z,36.54
2022-08-07T15:54:13.388Z,36.14
2022-08-07T15:55:20.398Z,35.80
2022-08-07T15:56:38.477Z,35.36
2022-08-07T15:57:51.414Z,36.73
2022-08-07T15:58:59.399Z,37.01
2022-08-07T16:00:06.323Z,36.69
2022-08-07T16:01:20.480Z,36.61
2022-08-07T16:02:28.492Z,36.52
2022-08-07T16:03:46.402Z,37.13
2022-08-07T16:04:57.958Z,37.12
2022-08-07T16:06:01.668Z,37.51
2022-08-07T16:08:32.925Z,38.33
2022-08-07T16:08:41.412Z,37.72
2022-08-07T16:09:54.540Z,37.99
2022-08-07T16:11:26.546Z,38.05
2022-08-07T16:13:01.115Z,38.07
2022-08-07T16:14:17.131Z,37.35
2022-08-07T16:15:57.524Z,37.64
2022-08-07T16:18:02.062Z,38.05
2022-08-07T16:19:42.838Z,38.61
2022-08-07T16:21:44.076Z,37.69
2022-08-07T16:22:31.961Z,37.19
2022-08-07T16:23:54.473Z,37.31
2022-08-07T16:25:22.777Z,37.75
2022-08-07T16:26:30.823Z,37.96
2022-08-07T16:27:41.888Z,38.31
2022-08-07T16:30:06.016Z,38.07
2022-08-07T16:30:50.142Z,37.73
2022-08-07T16:32:01.466Z,38.82
2022-08-07T16:34:03.254Z,38.96
2022-08-07T16:34:45.289Z,38.94
2022-08-07T16:36:03.504Z,38.70
2022-08-07T16:38:06.805Z,38.39
2022-08-07T16:39:40.625Z,38.41
2022-08-07T16:41:17.302Z,39.34
2022-08-07T16:42:31.829Z,39.10
2022-08-07T16:44:40.489Z,39.07
2022-08-07T16:46:47.405Z,39.53
2022-08-07T16:48:09.032Z,40.02
2022-08-07T16:50:29.367Z,39.68
2022-08-07T16:51:54.150Z,39.79
2022-08-07T16:52:55.460Z,40.26
2022-08-07T16:54:19.242Z,40.61
2022-08-07T16:55:51.290Z,39.83
2022-08-07T16:56:54.545Z,39.69
2022-08-07T16:59:02.426Z,39.31
2022-08-07T17:00:10.956Z,39.61
2022-08-07T17:01:48.543Z,40.04
2022-08-07T17:04:00.057Z,40.29
2022-08-07T17:05:15.218Z,39.83
2022-08-07T17:07:03.279Z,40.21
2022-08-07T17:08:09.173Z,40.49